createdAt,value
2017-08-27T00:01:42.615Z,97100.25
2017-08-27T00:06:29.301Z,97104.94
2017-08-27T00:11:15.986Z,97106.16
2017-08-27T00:16:02.732Z,97109.95
2017-08-27T00:20:49.411Z,97111.41
2017-08-27T00:25:36.164Z,97109.84
2017-08-27T00:30:22.834Z,97107.34
2017-08-27T00:35:09.497Z,97093.92
2017-08-27T00:39:56.207Z,97090.41
2017-08-27T00:44:42.944Z,97086.80
2017-08-27T00:49:29.643Z,97094.64
2017-08-27T00:54:17.030Z,97101.34
2017-08-27T00:59:03.757Z,97103.36
2017-08-27T01:03:50.460Z,97097.92
2017-08-27T01:08:37.148Z,97099.77
2017-08-27T01:13:24.552Z,97102.44
2017-08-27T01:18:11.241Z,97105.72
2017-08-27T01:22:58.042Z,97115.58
2017-08-27T01:27:44.721Z,97116.63
2017-08-27T01:32:31.620Z,97126.07
2017-08-27T01:37:18.276Z,97118.09
2017-08-27T01:42:04.990Z,97105.82
2017-08-27T01:46:51.922Z,97089.80
2017-08-27T01:51:38.725Z,97093.95
2017-08-27T01:56:25.416Z,97094.58
2017-08-27T02:01:12.124Z,97103.77
2017-08-27T02:05:58.925Z,97105.52
2017-08-27T02:10:45.643Z,97104.37
2017-08-27T02:15:32.387Z,97096.83
2017-08-27T02:20:19.068Z,97099.31
2017-08-27T02:25:05.982Z,97107.86
2017-08-27T02:29:52.630Z,97112.20
2017-08-27T02:34:39.902Z,97108.02
2017-08-27T02:39:26.554Z,97097.55
2017-08-27T02:44:13.228Z,97088.73
2017-08-27T02:48:59.878Z,97093.80
2017-08-27T02:53:46.560Z,97094.30
2017-08-27T02:58:33.226Z,97087.17
2017-08-27T03:03:20.193Z,97093.38
2017-08-27T03:08:06.842Z,97095.20
2017-08-27T03:12:53.522Z,97090.20
2017-08-27T03:17:40.145Z,97100.33
2017-08-27T03:22:26.861Z,97094.58
2017-08-27T03:27:13.641Z,97100.61
2017-08-27T03:32:00.421Z,97104.31
2017-08-27T03:36:47.582Z,97102.95
2017-08-27T03:41:34.208Z,97091.48
2017-08-27T03:46:21.004Z,97100.44
2017-08-27T03:51:07.664Z,97099.27
2017-08-27T03:55:54.365Z,97110.84
2017-08-27T04:00:41.029Z,97108.45
2017-08-27T04:05:27.665Z,97113.98
2017-08-27T04:10:14.294Z,97119.98
2017-08-27T04:15:00.964Z,97126.11
2017-08-27T04:19:47.599Z,97127.09
2017-08-27T04:24:34.290Z,97121.63
2017-08-27T04:29:20.954Z,97135.05
2017-08-27T04:34:07.984Z,97132.66
2017-08-27T04:38:54.691Z,97137.13
2017-08-27T04:43:41.329Z,97137.98
2017-08-27T04:48:28.092Z,97136.09
2017-08-27T04:53:14.745Z,97138.87
2017-08-27T04:58:01.560Z,97149.91
2017-08-27T05:02:48.258Z,97154.89
2017-08-27T05:07:35.106Z,97150.43
2017-08-27T05:12:22.216Z,97157.85
2017-08-27T05:17:08.906Z,97167.15
2017-08-27T05:21:55.623Z,97159.89
2017-08-27T05:26:42.361Z,97155.41
2017-08-27T05:31:29.131Z,97163.38
2017-08-27T05:36:16.037Z,97164.02
2017-08-27T05:41:02.698Z,97154.22
2017-08-27T05:45:49.374Z,97164.72
2017-08-27T05:50:36.200Z,97155.73
2017-08-27T05:55:22.912Z,97150.34
2017-08-27T06:00:09.576Z,97159.84
2017-08-27T06:04:56.586Z,97172.36
2017-08-27T06:09:43.238Z,97177.28
2017-08-27T06:14:29.881Z,97177.45
2017-08-27T06:19:16.509Z,97180.73
2017-08-27T06:24:03.127Z,97177.83
2017-08-27T06:28:50.168Z,97180.22
2017-08-27T06:33:36.783Z,97183.83
2017-08-27T06:38:23.492Z,97185.14
2017-08-27T06:43:10.229Z,97185.92
2017-08-27T06:47:56.938Z,97178.00
2017-08-27T06:52:43.557Z,97187.38
2017-08-27T06:57:30.234Z,97185.52
2017-08-27T07:02:16.863Z,97181.39
2017-08-27T07:07:03.607Z,97183.84
2017-08-27T07:11:50.574Z,97199.61
2017-08-27T07:16:37.229Z,97204.16
2017-08-27T07:21:23.937Z,97204.94
2017-08-27T07:26:10.602Z,97204.96
2017-08-27T07:30:57.267Z,97205.61
2017-08-27T07:35:43.893Z,97194.31
2017-08-27T07:40:30.504Z,97197.63
2017-08-27T07:45:17.165Z,97196.55
2017-08-27T07:50:03.794Z,97205.29
2017-08-27T07:54:50.432Z,97207.70
2017-08-27T07:59:37.081Z,97202.04
2017-08-27T08:04:23.724Z,97195.70
2017-08-27T08:09:10.328Z,97209.07
2017-08-27T08:13:57.014Z,97202.77
2017-08-27T08:18:43.969Z,97185.73
2017-08-27T08:23:30.560Z,97194.47
2017-08-27T08:28:17.181Z,97182.80
2017-08-27T08:33:03.803Z,97186.17
2017-08-27T08:37:50.423Z,97172.49
2017-08-27T08:42:37.037Z,97176.30
2017-08-27T08:47:23.703Z,97182.28
2017-08-27T08:52:10.722Z,97188.50
2017-08-27T08:56:57.315Z,97176.75
2017-08-27T09:01:43.951Z,97178.18
2017-08-27T09:06:30.598Z,97180.46
2017-08-27T09:11:17.228Z,97172.30
2017-08-27T09:16:03.879Z,97167.75
2017-08-27T09:20:50.555Z,97169.33
2017-08-27T09:25:37.998Z,97169.25
2017-08-27T09:30:24.666Z,97179.65
2017-08-27T09:35:11.323Z,97192.55
2017-08-27T09:39:57.926Z,97205.27
2017-08-27T09:44:44.553Z,97207.81
2017-08-27T09:49:31.279Z,97192.86
2017-08-27T09:54:18.312Z,97193.28
2017-08-27T09:59:05.106Z,97186.17
2017-08-27T10:03:51.721Z,97188.55
2017-08-27T10:08:38.387Z,97192.54
2017-08-27T10:13:25.044Z,97200.50
2017-08-27T10:18:11.709Z,97200.31
2017-08-27T10:22:58.657Z,97203.92
2017-08-27T10:27:45.274Z,97200.69
2017-08-27T10:32:31.912Z,97201.80
2017-08-27T10:37:18.590Z,97196.08
2017-08-27T10:42:05.242Z,97189.64
2017-08-27T10:46:52.905Z,97172.98
2017-08-27T10:51:39.701Z,97173.44
2017-08-27T10:56:26.728Z,97168.84
2017-08-27T11:01:13.368Z,97160.46
2017-08-27T11:06:00.006Z,97150.85
2017-08-27T11:10:46.687Z,97153.64
2017-08-27T11:15:33.364Z,97154.78
2017-08-27T11:20:20.032Z,97154.81
2017-08-27T11:25:06.950Z,97159.14
2017-08-27T11:29:53.601Z,97155.29
2017-08-27T11:34:40.292Z,97149.62
2017-08-27T11:39:27.054Z,97144.73
2017-08-27T11:44:13.736Z,97148.91
2017-08-27T11:49:00.362Z,97151.05
2017-08-27T11:53:47.316Z,97155.98
2017-08-27T11:58:33.939Z,97153.86
2017-08-27T12:03:20.699Z,97160.13
2017-08-27T12:08:07.441Z,97164.13
2017-08-27T12:12:54.223Z,97166.02
2017-08-27T12:17:40.896Z,97178.29
2017-08-27T12:22:27.833Z,97171.55
2017-08-27T12:27:14.562Z,97188.81
2017-08-27T12:32:01.209Z,97191.88
2017-08-27T12:36:47.888Z,97186.38
2017-08-27T12:41:34.544Z,97201.16
2017-08-27T12:46:21.178Z,97208.89
2017-08-27T12:51:07.828Z,97204.91
2017-08-27T12:55:54.466Z,97204.92
2017-08-27T13:00:41.087Z,97201.39
2017-08-27T13:05:28.333Z,97190.76
2017-08-27T13:10:14.993Z,97195.71
2017-08-27T13:15:01.611Z,97196.91
2017-08-27T13:19:48.229Z,97196.66
2017-08-27T13:24:35.174Z,97184.38
2017-08-27T13:29:21.811Z,97199.59
2017-08-27T13:34:08.863Z,97203.58
2017-08-27T13:38:55.618Z,97213.44
2017-08-27T13:43:42.341Z,97213.19
2017-08-27T13:48:29.037Z,97208.82
2017-08-27T13:53:15.717Z,97216.86
2017-08-27T13:58:02.634Z,97229.47
2017-08-27T14:02:49.272Z,97234.16
2017-08-27T14:07:35.896Z,97256.78
2017-08-27T14:12:22.575Z,97251.84
2017-08-27T14:17:10.005Z,97219.59
2017-08-27T14:21:56.711Z,97164.97
2017-08-27T14:26:43.435Z,97161.67
2017-08-27T14:31:30.155Z,97175.75
2017-08-27T14:36:16.874Z,97187.38
2017-08-27T14:41:03.634Z,97180.92
2017-08-27T14:45:50.352Z,97193.71
2017-08-27T14:50:37.014Z,97202.77
2017-08-27T14:55:23.664Z,97182.50
2017-08-27T15:00:10.350Z,97187.05
2017-08-27T15:04:57.408Z,97184.88
2017-08-27T15:09:44.048Z,97173.42
2017-08-27T15:14:30.718Z,97166.33
2017-08-27T15:19:17.370Z,97161.20
2017-08-27T15:24:04.118Z,97158.52
2017-08-27T15:28:51.037Z,97161.25
2017-08-27T15:33:37.734Z,97157.17
2017-08-27T15:38:24.418Z,97166.77
2017-08-27T15:43:11.088Z,97142.94
2017-08-27T15:47:57.731Z,97149.54
2017-08-27T15:52:44.845Z,97152.59
2017-08-27T15:57:31.456Z,97149.17
2017-08-27T16:02:18.111Z,97153.55
2017-08-27T16:07:04.798Z,97148.90
2017-08-27T16:11:51.439Z,97152.56
2017-08-27T16:16:38.541Z,97152.22
2017-08-27T16:21:25.469Z,97153.06
2017-08-27T16:26:12.191Z,97145.65
2017-08-27T16:30:59.059Z,97154.58
2017-08-27T16:35:45.782Z,97147.77
2017-08-27T16:40:32.785Z,97147.66
2017-08-27T16:45:19.440Z,97160.72
2017-08-27T16:50:06.519Z,97167.50
2017-08-27T16:54:53.193Z,97177.69
2017-08-27T16:59:39.848Z,97173.57
2017-08-27T17:04:26.515Z,97166.46
2017-08-27T17:09:13.490Z,97171.86
2017-08-27T17:14:00.206Z,97172.86
2017-08-27T17:18:47.001Z,97168.73
2017-08-27T17:23:33.644Z,97181.49
2017-08-27T17:28:20.294Z,97185.12
2017-08-27T17:33:06.938Z,97185.90
2017-08-27T17:37:53.603Z,97177.97
2017-08-27T17:42:40.610Z,97202.95
2017-08-27T17:47:27.233Z,97197.73
2017-08-27T17:52:13.881Z,97198.88
2017-08-27T17:57:00.546Z,97209.08
2017-08-27T18:01:47.557Z,97217.84
2017-08-27T18:06:34.224Z,97222.35
2017-08-27T18:11:20.916Z,97218.41
2017-08-27T18:16:07.641Z,97212.29
2017-08-27T18:20:54.330Z,97223.81
2017-08-27T18:25:41.057Z,97246.43
2017-08-27T18:30:27.827Z,97246.45
2017-08-27T18:35:14.621Z,97257.22
2017-08-27T18:40:01.767Z,97254.41
2017-08-27T18:44:48.464Z,97262.89
2017-08-27T18:49:35.180Z,97264.63
2017-08-27T18:54:21.893Z,97272.46
2017-08-27T18:59:09.408Z,97258.14
2017-08-27T19:03:58.068Z,97242.47
2017-08-27T19:08:45.051Z,97252.13
2017-08-27T19:13:32.198Z,97245.45
2017-08-27T19:18:19.097Z,97256.70
2017-08-27T19:23:05.785Z,97277.98
2017-08-27T19:27:52.485Z,97282.89
2017-08-27T19:32:39.168Z,97273.32
2017-08-27T19:37:26.180Z,97269.60
2017-08-27T19:42:12.886Z,97275.61
2017-08-27T19:46:59.638Z,97257.90
2017-08-27T19:51:46.356Z,97254.77
2017-08-27T19:56:33.217Z,97268.19
2017-08-27T20:01:19.964Z,97255.63
2017-08-27T20:06:07.023Z,97265.22
2017-08-27T20:10:53.849Z,97249.70
2017-08-27T20:15:40.601Z,97262.53
2017-08-27T20:20:27.328Z,97274.40
2017-08-27T20:25:14.289Z,97272.80
2017-08-27T20:30:01.297Z,97279.59
2017-08-27T20:34:48.019Z,97275.13
2017-08-27T20:39:34.735Z,97273.72
2017-08-27T20:44:21.417Z,97270.67
2017-08-27T20:49:08.175Z,97277.55
2017-08-27T20:53:55.462Z,97293.98
2017-08-27T20:58:42.156Z,97295.98
2017-08-27T21:03:28.801Z,97302.54
2017-08-27T21:08:15.441Z,97308.59
2017-08-27T21:13:02.081Z,97309.69
2017-08-27T21:17:48.725Z,97308.43
2017-08-27T21:22:35.654Z,97302.84
2017-08-27T21:27:22.291Z,97304.05
2017-08-27T21:32:08.953Z,97311.02
2017-08-27T21:36:55.575Z,97307.71
2017-08-27T21:41:42.217Z,97308.18
2017-08-27T21:46:28.870Z,97306.19
2017-08-27T21:51:15.500Z,97310.96
2017-08-27T21:56:02.456Z,97309.09
2017-08-27T22:00:49.126Z,97312.80
2017-08-27T22:05:35.797Z,97314.95
2017-08-27T22:10:22.425Z,97305.34
2017-08-27T22:15:09.076Z,97309.64
2017-08-27T22:19:55.720Z,97297.38
2017-08-27T22:24:42.717Z,97307.00
2017-08-27T22:29:29.356Z,97304.98
2017-08-27T22:34:15.982Z,97307.44
2017-08-27T22:39:02.576Z,97297.66
2017-08-27T22:43:49.233Z,97300.58
2017-08-27T22:48:35.881Z,97303.55
2017-08-27T22:53:22.580Z,97303.36
2017-08-27T22:58:09.673Z,97308.41
2017-08-27T23:02:56.653Z,97310.57
2017-08-27T23:07:43.321Z,97304.52
2017-08-27T23:12:29.986Z,97303.49
2017-08-27T23:17:16.768Z,97295.48
2017-08-27T23:22:03.507Z,97295.58
2017-08-27T23:26:50.160Z,97293.63
2017-08-27T23:31:37.154Z,97297.06
2017-08-27T23:36:23.760Z,97303.06
2017-08-27T23:41:10.440Z,97298.30
2017-08-27T23:45:57.071Z,97291.73
2017-08-27T23:50:43.760Z,97290.14
2017-08-27T23:55:30.426Z,97298.62
